31.9 C
London
Sunday, August 14, 2022

INCIDENT: Flyegypt Boeing 737 Burst All 4 Main Tyres On Landing

- Advertisement - Booking.com
- Advertisement -spot_imgspot_imgspot_imgspot_img

A Flyegypt Boeing 737-700, registration SU-TMM, carrying 113 passengers on flight FT-3103 from Hurghada, Egypt, to Cluj, Romania, landed on runway 25 at 19:12L (16:12Z) when the tower instantly noticed sparks and flames from the landing gear.

All four main tyres on the aircraft burst about 1028 meters/3370 feet past the displaced runway threshold when the plane stops on the runway.

The runway had to be shut down.

Related NOTAMs:
A3995/21 NOTAMR A3994/21
Q) LRBB/QMRLC/IV/NBO/A /000/999/4647N02342E005
A) LRCL B) 2110151738 C) 2110151930
E) RWY 07/25 CLSD
A3994/21 NOTAMN
Q) LRBB/QMRLC/IV/NBO/A /000/999/4647N02342E005
A) LRCL B) 2110151720 C) 2110151820 EST
E) RWY 07/25 CLSD

Metars:
LRCL 151700Z 08003KT 9999 FEW065 09/05 Q1019=
LRCL 151630Z 12004KT CAVOK 09/05 Q1019=
LRCL 151600Z 11004KT CAVOK 09/05 Q1019=
LRCL 151530Z 12004KT CAVOK 09/05 Q1019=

Article and photo sources by Avhearld

- Advertisement -
Latest news
- Advertisement - Get a .com now from $4.99*/yr with GoDaddy!
- Advertisement -
- Advertisement -
Related news
- Advertisement -spot_img

1 COMMENT

LEAVE A REPLY

Please enter your comment!
Please enter your name here